createdAt,value
2018-03-27T06:19:11.136Z,1014.11
2018-03-27T06:20:11.123Z,1014.08
2018-03-27T06:21:11.158Z,1014.14
2018-03-27T06:22:11.192Z,1014.12
2018-03-27T06:23:11.626Z,1014.1
2018-03-27T06:24:12.021Z,1014.06
2018-03-27T06:25:12.029Z,1014.09
2018-03-27T06:26:12.155Z,1014.11
2018-03-27T06:27:12.599Z,1014.09
2018-03-27T06:28:12.627Z,1014.07
2018-03-27T06:29:12.722Z,1014.1
2018-03-27T06:30:12.748Z,1014.04
2018-03-27T06:31:12.769Z,1014.13
2018-03-27T06:32:12.917Z,1014.07
2018-03-27T06:33:12.966Z,1014.09
2018-03-27T06:34:13.243Z,1014.11
2018-03-27T06:35:13.654Z,1014.14
2018-03-27T06:36:13.756Z,1014.22
2018-03-27T06:37:13.818Z,1014.29
2018-03-27T06:38:13.848Z,1014.34
2018-03-27T06:39:13.957Z,1014.43
2018-03-27T06:40:13.988Z,1014.45
2018-03-27T06:41:13.998Z,1014.57
2018-03-27T06:42:14.172Z,1014.62
2018-03-27T06:43:14.196Z,1014.61
2018-03-27T06:44:14.213Z,1014.63
2018-03-27T06:45:14.228Z,1014.71
2018-03-27T06:46:14.391Z,1014.68
2018-03-27T06:47:14.442Z,1014.68
2018-03-27T06:48:14.436Z,1014.67
2018-03-27T06:49:14.466Z,1014.71
2018-03-27T06:50:14.504Z,1014.68
2018-03-27T06:51:14.520Z,1014.65
2018-03-27T06:52:14.619Z,1014.65
2018-03-27T06:53:14.656Z,1014.66
2018-03-27T06:54:14.788Z,1014.69
2018-03-27T06:55:14.954Z,1014.7
2018-03-27T06:56:15.376Z,1014.73
2018-03-27T06:57:15.546Z,1014.7
2018-03-27T06:58:15.921Z,1014.74
2018-03-27T06:59:16.031Z,1014.86
2018-03-27T07:00:16.275Z,1014.9
2018-03-27T07:01:16.245Z,1014.88
2018-03-27T07:02:16.381Z,1014.93
2018-03-27T07:03:16.083Z,1014.99
2018-03-27T07:04:16.101Z,1015
2018-03-27T07:05:16.182Z,1015.11
2018-03-27T07:06:16.184Z,1015.12
2018-03-27T07:07:16.208Z,1015.13
2018-03-27T07:08:16.224Z,1015.16
2018-03-27T07:09:16.250Z,1015.15
2018-03-27T07:10:16.275Z,1015.23
2018-03-27T07:11:16.366Z,1015.23
2018-03-27T07:12:16.435Z,1015.28
2018-03-27T07:13:16.451Z,1015.3
2018-03-27T07:14:16.510Z,1015.34
2018-03-27T07:15:16.532Z,1015.31
2018-03-27T07:16:16.722Z,1015.35
2018-03-27T07:17:16.910Z,1015.26
2018-03-27T07:18:16.956Z,1015.31
2018-03-27T07:19:16.964Z,1015.29
2018-03-27T07:20:17.019Z,1015.31
2018-03-27T07:21:17.371Z,1015.29
2018-03-27T07:22:17.069Z,1015.24
2018-03-27T07:23:17.147Z,1015.02
2018-03-27T07:24:17.121Z,1015.09
2018-03-27T07:25:17.329Z,1015.13
2018-03-27T07:26:17.701Z,1015.22
2018-03-27T07:27:17.728Z,1015.25
2018-03-27T07:28:17.932Z,1015.19
2018-03-27T07:29:17.992Z,1015.1
2018-03-27T07:30:18.536Z,1015.08
2018-03-27T07:31:18.685Z,1015.1
2018-03-27T07:32:19.028Z,1015.06
2018-03-27T07:33:19.004Z,1014.98
2018-03-27T07:34:20.127Z,1014.88
2018-03-27T07:35:20.252Z,1015.22
2018-03-27T07:36:20.290Z,1014.61
2018-03-27T07:37:20.326Z,1014.18
2018-03-27T07:38:20.447Z,1014.32
2018-03-27T07:39:20.554Z,1014.69
2018-03-27T07:40:20.577Z,1014.54
2018-03-27T07:41:20.761Z,1015.19
2018-03-27T07:42:20.825Z,1014.8
2018-03-27T07:43:20.828Z,1014.37
2018-03-27T07:44:20.659Z,1014
2018-03-27T07:45:21.284Z,1014.01
2018-03-27T07:46:21.405Z,1014.04
2018-03-27T07:47:21.434Z,1014.07
2018-03-27T07:48:21.677Z,1014.01
2018-03-27T07:49:21.719Z,1014.05
2018-03-27T07:50:22.000Z,1014.06
2018-03-27T07:51:21.958Z,1014.07
2018-03-27T07:52:21.934Z,1014.04
2018-03-27T07:53:21.980Z,1013.98
2018-03-27T07:54:22.089Z,1014.04
2018-03-27T07:55:22.041Z,1014.04
2018-03-27T07:56:22.312Z,1014.05
2018-03-27T07:57:22.325Z,1014.72
2018-03-27T07:58:22.356Z,1014.69
2018-03-27T07:59:22.404Z,1014.5
2018-03-27T08:00:22.850Z,1014.06
2018-03-27T08:01:23.063Z,1014.05
2018-03-27T08:02:23.229Z,1014.05
2018-03-27T08:03:23.540Z,1014.01
2018-03-27T08:04:23.600Z,1013.97
2018-03-27T08:05:23.846Z,1013.98
2018-03-27T08:06:23.676Z,1013.94
2018-03-27T08:07:23.698Z,1013.96
2018-03-27T08:08:23.840Z,1013.98
2018-03-27T08:09:23.791Z,1014.13
2018-03-27T08:10:23.777Z,1014.34
2018-03-27T08:11:23.837Z,1014.39
2018-03-27T08:12:23.832Z,1014.5
2018-03-27T08:13:23.860Z,1014.25
2018-03-27T08:14:23.909Z,1014.25
2018-03-27T08:15:24.085Z,1014.28
2018-03-27T08:16:24.115Z,1013.94
2018-03-27T08:17:24.234Z,1013.91
2018-03-27T08:18:24.220Z,1014.27
2018-03-27T08:19:24.221Z,1013.82
2018-03-27T08:20:24.261Z,1013.81
2018-03-27T08:21:24.459Z,1013.87
2018-03-27T08:22:24.503Z,1013.86
2018-03-27T08:23:24.535Z,1013.85
2018-03-27T08:24:24.614Z,1013.9
2018-03-27T08:25:24.636Z,1013.83
2018-03-27T08:26:25.068Z,1013.87
2018-03-27T08:27:25.133Z,1013.84
2018-03-27T08:28:25.137Z,1013.84
2018-03-27T08:29:25.813Z,1013.91
2018-03-27T08:30:25.842Z,1013.82
2018-03-27T08:31:25.872Z,1013.84
2018-03-27T08:32:26.080Z,1013.76
2018-03-27T08:33:26.110Z,1013.82
2018-03-27T08:34:26.144Z,1013.78
2018-03-27T08:35:26.175Z,1013.76
2018-03-27T08:36:27.039Z,1013.72
2018-03-27T08:37:27.046Z,1013.72
2018-03-27T08:38:27.192Z,1013.73
2018-03-27T08:39:27.454Z,1013.7
2018-03-27T08:40:27.487Z,1013.72
2018-03-27T08:41:27.521Z,1013.75
2018-03-27T08:42:27.545Z,1013.74
2018-03-27T08:43:27.759Z,1013.78
2018-03-27T08:44:27.797Z,1013.82
2018-03-27T08:45:27.830Z,1013.81
2018-03-27T08:46:27.938Z,1013.83
2018-03-27T08:47:27.978Z,1013.81
2018-03-27T08:48:27.947Z,1013.82
2018-03-27T08:49:27.977Z,1013.83
2018-03-27T08:50:28.018Z,1013.73
2018-03-27T08:51:28.284Z,1013.83
2018-03-27T08:52:28.067Z,1013.95
2018-03-27T08:53:28.117Z,1014.02
2018-03-27T08:54:28.132Z,1013.91
2018-03-27T08:55:28.176Z,1014.04
2018-03-27T08:56:28.478Z,1014.01
2018-03-27T08:57:28.272Z,1014
2018-03-27T08:58:28.517Z,1014.07
2018-03-27T08:59:28.912Z,1014.04
2018-03-27T09:00:28.879Z,1013.83
2018-03-27T09:01:29.302Z,1013.97
2018-03-27T09:02:29.347Z,1013.87
2018-03-27T09:03:29.393Z,1013.76
2018-03-27T09:04:29.448Z,1013.77
2018-03-27T09:05:29.453Z,1013.75
2018-03-27T09:06:29.488Z,1014.04
2018-03-27T09:07:29.525Z,1014.02
2018-03-27T09:08:29.718Z,1013.8
2018-03-27T09:09:29.759Z,1013.69
2018-03-27T09:10:30.168Z,1013.99
2018-03-27T09:11:30.345Z,1013.96
2018-03-27T09:12:31.458Z,1013.94
2018-03-27T09:13:31.584Z,1013.82
2018-03-27T09:14:31.629Z,1013.96
2018-03-27T09:15:31.816Z,1013.91
2018-03-27T09:16:32.110Z,1013.91
2018-03-27T09:17:32.144Z,1013.79
2018-03-27T09:18:32.291Z,1013.46
2018-03-27T09:19:32.463Z,1013.49
2018-03-27T09:20:32.876Z,1013.46
2018-03-27T09:21:32.923Z,1013.47
2018-03-27T09:22:32.967Z,1013.54
2018-03-27T09:23:32.999Z,1013.53
2018-03-27T09:24:33.505Z,1013.69
2018-03-27T09:25:33.654Z,1013.71
2018-03-27T09:26:33.699Z,1013.56
2018-03-27T09:27:33.737Z,1013.71
2018-03-27T09:28:33.789Z,1013.95
2018-03-27T09:29:34.306Z,1014.04
2018-03-27T09:30:34.467Z,1013.69
2018-03-27T09:31:34.474Z,1013.45
2018-03-27T09:32:34.529Z,1013.42
2018-03-27T09:33:34.537Z,1013.45
2018-03-27T09:34:34.593Z,1013.42
2018-03-27T09:35:34.616Z,1013.48
2018-03-27T09:36:34.649Z,1013.94
2018-03-27T09:37:35.113Z,1013.68
2018-03-27T09:38:35.538Z,1013.47
2018-03-27T09:39:35.587Z,1014.3
2018-03-27T09:40:35.619Z,1014.2
2018-03-27T09:41:35.655Z,1014.22
2018-03-27T09:42:36.057Z,1014.21
2018-03-27T09:43:36.119Z,1014.09
2018-03-27T09:44:36.533Z,1014.2
2018-03-27T09:45:36.981Z,1014.17
2018-03-27T09:46:37.005Z,1014.21
2018-03-27T09:47:37.207Z,1014.23
2018-03-27T09:48:37.305Z,1014.25
2018-03-27T09:49:37.316Z,1014.23
2018-03-27T09:50:37.347Z,1014.2
2018-03-27T09:51:37.663Z,1014.27
2018-03-27T09:52:37.651Z,1014.32
2018-03-27T09:53:38.140Z,1014.19
2018-03-27T09:54:38.491Z,1013.98
2018-03-27T09:55:38.466Z,1013.61
2018-03-27T09:56:38.519Z,1013.69
2018-03-27T09:57:38.657Z,1013.86
2018-03-27T09:58:39.089Z,1014.04
2018-03-27T09:59:39.130Z,1013.98
2018-03-27T10:00:39.584Z,1013.84
2018-03-27T10:01:40.024Z,1013.75
2018-03-27T10:02:40.049Z,1013.99
2018-03-27T10:03:40.533Z,1013.54
2018-03-27T10:04:40.562Z,1013.5
2018-03-27T10:05:40.568Z,1013.66
2018-03-27T10:06:41.399Z,1013.53
2018-03-27T10:07:41.413Z,1013.51
2018-03-27T10:08:41.606Z,1013.6
2018-03-27T10:09:42.041Z,1013.75
2018-03-27T10:10:42.272Z,1013.97
2018-03-27T10:11:42.534Z,1013.45
2018-03-27T10:12:42.664Z,1013.42
2018-03-27T10:13:42.755Z,1014.14
2018-03-27T10:14:42.743Z,1014.04
2018-03-27T10:15:43.060Z,1014.25
2018-03-27T10:16:43.123Z,1014.46
2018-03-27T10:17:43.185Z,1014.5
2018-03-27T10:18:43.311Z,1014.55
2018-03-27T10:19:43.224Z,1014.54
2018-03-27T10:20:43.408Z,1014.58
2018-03-27T10:21:43.274Z,1013.72
2018-03-27T10:22:46.350Z,1013.46
2018-03-27T10:23:43.344Z,1013.47
2018-03-27T10:24:43.857Z,1013.58
2018-03-27T10:25:43.918Z,1014.01
2018-03-27T10:26:43.955Z,1014.88
2018-03-27T10:27:43.972Z,1014.84
2018-03-27T10:28:44.299Z,1013.98
2018-03-27T10:29:44.568Z,1013.34
2018-03-27T10:30:44.875Z,1013.25
2018-03-27T10:31:44.962Z,1013.26
2018-03-27T10:32:44.983Z,1013.33
2018-03-27T10:33:45.076Z,1013.3
2018-03-27T10:34:45.346Z,1013.19
2018-03-27T10:35:45.393Z,1013.21
2018-03-27T10:36:45.396Z,1013.18
2018-03-27T10:37:45.448Z,1013.12
2018-03-27T10:38:45.496Z,1013.11
2018-03-27T10:39:45.502Z,1013.1
2018-03-27T10:40:45.824Z,1013.11
2018-03-27T10:41:45.621Z,1013.12
2018-03-27T10:42:45.663Z,1013.11
2018-03-27T10:43:45.697Z,1013.14
2018-03-27T10:44:45.682Z,1013.13
2018-03-27T10:45:46.177Z,1013.12
2018-03-27T10:46:46.166Z,1013.13
2018-03-27T10:47:46.332Z,1013.1
2018-03-27T10:48:46.386Z,1013.18
2018-03-27T10:49:46.641Z,1013.12
2018-03-27T10:50:46.672Z,1013.17
2018-03-27T10:51:46.790Z,1013.16
2018-03-27T10:52:46.739Z,1013.19
2018-03-27T10:53:46.825Z,1013.14
2018-03-27T10:54:46.801Z,1013.05
2018-03-27T10:55:46.906Z,1013.27
2018-03-27T10:56:46.933Z,1013.54
2018-03-27T10:57:47.266Z,1014.05
2018-03-27T10:58:47.276Z,1013.69
2018-03-27T10:59:47.322Z,1013.29
2018-03-27T11:00:47.726Z,1013.06
2018-03-27T11:01:48.235Z,1013.05
2018-03-27T11:02:48.245Z,1013.01
2018-03-27T11:03:48.349Z,1013
2018-03-27T11:04:48.351Z,1013.03
2018-03-27T11:05:48.445Z,1012.94
2018-03-27T11:06:48.491Z,1012.97
2018-03-27T11:07:48.899Z,1012.94
2018-03-27T11:08:49.059Z,1012.95
2018-03-27T11:09:49.355Z,1012.9
2018-03-27T11:10:50.264Z,1012.94
2018-03-27T11:11:50.435Z,1013
2018-03-27T11:12:50.506Z,1012.99
2018-03-27T11:13:50.363Z,1012.97
2018-03-27T11:14:50.289Z,1013.01
2018-03-27T11:15:50.284Z,1012.97
2018-03-27T11:16:50.306Z,1012.98
2018-03-27T11:17:50.712Z,1012.92
2018-03-27T11:18:50.819Z,1012.91
2018-03-27T11:19:50.869Z,1012.96
2018-03-27T11:20:50.900Z,1012.92
2018-03-27T11:21:50.926Z,1012.9
2018-03-27T11:22:50.955Z,1012.91
2018-03-27T11:23:51.156Z,1012.89
2018-03-27T11:24:51.540Z,1012.96
2018-03-27T11:25:51.565Z,1012.99
2018-03-27T11:26:51.936Z,1012.95
2018-03-27T11:27:52.116Z,1012.95
2018-03-27T11:28:52.416Z,1012.98
2018-03-27T11:29:52.855Z,1012.97
2018-03-27T11:30:52.966Z,1012.96
2018-03-27T11:31:52.988Z,1012.97
2018-03-27T11:32:53.298Z,1012.95
2018-03-27T11:33:53.302Z,1012.95
2018-03-27T11:34:53.354Z,1012.94
2018-03-27T11:35:53.365Z,1012.9
2018-03-27T11:36:53.504Z,1012.9
2018-03-27T11:37:53.863Z,1012.86
2018-03-27T11:38:53.876Z,1012.89
2018-03-27T11:39:53.893Z,1012.87
2018-03-27T11:40:54.247Z,1012.84
2018-03-27T11:41:53.960Z,1012.82
2018-03-27T11:42:53.987Z,1012.83
2018-03-27T11:43:54.016Z,1012.82
2018-03-27T11:44:54.252Z,1012.85
2018-03-27T11:45:55.012Z,1012.84
2018-03-27T11:46:54.992Z,1012.81
2018-03-27T11:47:55.260Z,1012.8
2018-03-27T11:48:55.127Z,1012.83
2018-03-27T11:49:55.215Z,1012.79
2018-03-27T11:50:55.410Z,1012.77
2018-03-27T11:51:55.453Z,1012.79
2018-03-27T11:52:55.529Z,1012.76
2018-03-27T11:53:55.324Z,1012.73
2018-03-27T11:54:55.558Z,1012.74
2018-03-27T11:55:55.604Z,1012.72
2018-03-27T11:56:55.636Z,1012.68
2018-03-27T11:57:55.450Z,1012.71
2018-03-27T11:58:55.390Z,1012.71
2018-03-27T11:59:55.479Z,1012.71
2018-03-27T12:00:55.452Z,1012.65
2018-03-27T12:01:55.469Z,1012.67
2018-03-27T12:02:55.873Z,1012.6
2018-03-27T12:03:56.061Z,1012.63
2018-03-27T12:04:56.221Z,1012.66
2018-03-27T12:05:56.249Z,1012.64
2018-03-27T12:06:56.282Z,1012.67
2018-03-27T12:07:56.594Z,1012.65
2018-03-27T12:08:56.400Z,1012.59
2018-03-27T12:09:56.849Z,1012.62
2018-03-27T12:10:56.881Z,1012.59
2018-03-27T12:11:57.062Z,1012.6
2018-03-27T12:12:57.080Z,1012.58
2018-03-27T12:13:57.281Z,1012.56
2018-03-27T12:14:57.295Z,1012.53
2018-03-27T12:15:57.504Z,1012.5
2018-03-27T12:16:57.529Z,1012.52
2018-03-27T12:17:57.574Z,1012.5
2018-03-27T12:18:57.588Z,1012.5
2018-03-27T12:19:57.754Z,1012.54
2018-03-27T12:20:57.974Z,1012.46
2018-03-27T12:21:58.007Z,1012.41
2018-03-27T12:22:58.167Z,1012.45
2018-03-27T12:23:58.455Z,1012.41
2018-03-27T12:24:58.474Z,1012.44
2018-03-27T12:25:58.643Z,1012.41
2018-03-27T12:26:58.658Z,1012.39
2018-03-27T12:27:58.704Z,1012.35
2018-03-27T12:28:58.729Z,1012.39
2018-03-27T12:29:58.758Z,1012.41
2018-03-27T12:30:58.782Z,1012.39
2018-03-27T12:31:59.171Z,1012.41
2018-03-27T12:32:59.229Z,1012.4
2018-03-27T12:33:59.224Z,1012.39
2018-03-27T12:34:59.250Z,1012.37
2018-03-27T12:35:59.290Z,1012.38
2018-03-27T12:36:59.351Z,1012.31
2018-03-27T12:37:59.842Z,1012.33
2018-03-27T12:38:59.980Z,1012.31
2018-03-27T12:40:00.463Z,1012.3
2018-03-27T12:41:00.653Z,1012.3
2018-03-27T12:42:00.845Z,1012.26
2018-03-27T12:43:00.873Z,1012.25
2018-03-27T12:44:00.905Z,1012.24
2018-03-27T12:45:00.940Z,1012.24
2018-03-27T12:46:00.965Z,1012.21
2018-03-27T12:47:00.988Z,1012.22
2018-03-27T12:48:01.021Z,1012.2
2018-03-27T12:49:01.653Z,1012.2
2018-03-27T12:50:01.821Z,1012.27
2018-03-27T12:51:01.851Z,1012.24
2018-03-27T12:52:01.907Z,1012.2
2018-03-27T12:53:02.056Z,1012.22
2018-03-27T12:54:02.059Z,1012.18
2018-03-27T12:55:01.972Z,1012.16
2018-03-27T12:56:02.083Z,1012.21
2018-03-27T12:57:02.022Z,1012.18
2018-03-27T12:58:02.099Z,1012.16
2018-03-27T12:59:02.146Z,1012.15
2018-03-27T13:00:08.946Z,1012.09
2018-03-27T13:01:08.901Z,1012.05
2018-03-27T13:02:08.933Z,1012.06
2018-03-27T13:03:08.940Z,1012.01
2018-03-27T13:04:08.964Z,1012
2018-03-27T13:05:09.716Z,1012
2018-03-27T13:06:09.495Z,1012.02
2018-03-27T13:07:09.507Z,1011.95
2018-03-27T13:08:09.509Z,1011.97
2018-03-27T13:09:09.673Z,1011.96
2018-03-27T13:10:09.847Z,1011.96
2018-03-27T13:11:09.730Z,1011.95
2018-03-27T13:12:09.928Z,1011.93
2018-03-27T13:13:10.311Z,1011.91
2018-03-27T13:14:10.399Z,1011.91
2018-03-27T13:15:10.594Z,1011.92
2018-03-27T13:16:10.454Z,1011.91
2018-03-27T13:17:10.566Z,1011.97
2018-03-27T13:18:10.589Z,1011.89
2018-03-27T13:19:10.617Z,1011.85
2018-03-27T13:20:10.757Z,1011.77
2018-03-27T13:21:10.787Z,1011.83
2018-03-27T13:22:11.510Z,1011.85
2018-03-27T13:23:11.222Z,1011.81
2018-03-27T13:24:11.678Z,1011.76
2018-03-27T13:25:11.720Z,1011.76
2018-03-27T13:26:11.736Z,1011.79
2018-03-27T13:27:11.772Z,1011.75
2018-03-27T13:28:12.036Z,1011.76
2018-03-27T13:29:12.661Z,1011.7
2018-03-27T13:30:12.593Z,1011.69
2018-03-27T13:31:12.616Z,1011.62
2018-03-27T13:32:12.780Z,1011.63
2018-03-27T13:33:12.794Z,1011.61
2018-03-27T13:34:13.199Z,1011.62
2018-03-27T13:35:13.233Z,1011.53
2018-03-27T13:36:13.398Z,1011.58
2018-03-27T13:37:13.417Z,1011.57
2018-03-27T13:38:13.602Z,1011.58
2018-03-27T13:39:13.666Z,1011.57
2018-03-27T13:40:14.075Z,1011.53
2018-03-27T13:41:14.098Z,1011.52
2018-03-27T13:42:14.129Z,1011.48
2018-03-27T13:43:14.508Z,1011.54
2018-03-27T13:44:14.926Z,1011.49
2018-03-27T13:45:14.952Z,1011.44
2018-03-27T13:46:15.358Z,1011.43
2018-03-27T13:47:15.381Z,1011.47
2018-03-27T13:48:15.474Z,1011.41
2018-03-27T13:49:15.447Z,1011.43
2018-03-27T13:50:15.904Z,1011.38
2018-03-27T13:51:16.327Z,1011.38
2018-03-27T13:52:16.750Z,1011.41
2018-03-27T13:53:17.170Z,1011.37
2018-03-27T13:54:17.625Z,1011.41
2018-03-27T13:55:17.691Z,1011.38
2018-03-27T13:56:17.670Z,1011.34
2018-03-27T13:57:17.705Z,1011.39
2018-03-27T13:58:18.122Z,1011.33
2018-03-27T13:59:18.279Z,1011.35
2018-03-27T14:00:18.338Z,1011.35
2018-03-27T14:01:18.740Z,1011.35
2018-03-27T14:02:18.912Z,1011.34
2018-03-27T14:03:18.952Z,1011.31
2018-03-27T14:04:18.973Z,1011.32
2018-03-27T14:05:19.000Z,1011.32
2018-03-27T14:06:19.040Z,1011.32
2018-03-27T14:07:19.481Z,1011.3
2018-03-27T14:08:19.503Z,1011.29
2018-03-27T14:09:19.545Z,1011.34
2018-03-27T14:10:19.569Z,1011.35
2018-03-27T14:11:19.596Z,1011.29
2018-03-27T14:12:19.621Z,1011.33
2018-03-27T14:13:19.784Z,1011.33
2018-03-27T14:14:20.204Z,1011.34
2018-03-27T14:15:20.235Z,1011.31
2018-03-27T14:16:20.397Z,1011.31
2018-03-27T14:17:21.680Z,1011.3
2018-03-27T14:18:21.245Z,1011.27
2018-03-27T14:19:21.400Z,1011.26
2018-03-27T14:20:21.690Z,1011.24
2018-03-27T14:21:21.744Z,1011.3
2018-03-27T14:22:21.905Z,1011.27
2018-03-27T14:23:22.034Z,1011.23
2018-03-27T14:24:22.072Z,1011.23
2018-03-27T14:25:22.098Z,1011.26
2018-03-27T14:26:22.165Z,1011.2
2018-03-27T14:27:22.159Z,1011.17
2018-03-27T14:28:22.404Z,1011.17
2018-03-27T14:29:22.387Z,1011.19
2018-03-27T14:30:22.419Z,1011.22
2018-03-27T14:31:22.489Z,1011.15
2018-03-27T14:32:22.651Z,1011.13
2018-03-27T14:33:22.634Z,1011.12
2018-03-27T14:34:23.039Z,1011.09
2018-03-27T14:35:23.473Z,1011.07
2018-03-27T14:36:23.519Z,1011.02
2018-03-27T14:37:23.556Z,1011.06
2018-03-27T14:38:23.852Z,1011.06
2018-03-27T14:39:23.886Z,1011.01
2018-03-27T14:40:24.021Z,1011.04
2018-03-27T14:41:24.041Z,1010.96
2018-03-27T14:42:24.590Z,1011.04
2018-03-27T14:43:24.783Z,1011.02
2018-03-27T14:44:24.797Z,1011.01
2018-03-27T14:45:24.824Z,1010.98
2018-03-27T14:46:25.294Z,1010.98
2018-03-27T14:47:25.560Z,1011.01
2018-03-27T14:48:25.591Z,1010.95
2018-03-27T14:49:25.621Z,1010.99
2018-03-27T14:50:25.647Z,1010.95
2018-03-27T14:51:25.682Z,1010.98
2018-03-27T14:52:25.725Z,1010.95
2018-03-27T14:53:25.829Z,1010.91
2018-03-27T14:54:25.758Z,1010.97
2018-03-27T14:55:26.052Z,1010.93
2018-03-27T14:56:26.234Z,1010.92
2018-03-27T14:57:26.269Z,1010.89
2018-03-27T14:58:26.684Z,1010.88
2018-03-27T14:59:26.708Z,1010.86
2018-03-27T15:00:27.071Z,1010.85
2018-03-27T15:01:27.439Z,1010.84
2018-03-27T15:02:27.701Z,1010.84
2018-03-27T15:03:27.680Z,1010.82
2018-03-27T15:04:27.516Z,1010.78
2018-03-27T15:05:27.529Z,1010.78
2018-03-27T15:06:27.577Z,1010.76
2018-03-27T15:07:27.809Z,1010.75
2018-03-27T15:08:27.775Z,1010.7
2018-03-27T15:09:27.809Z,1010.67
2018-03-27T15:10:27.843Z,1010.71
2018-03-27T15:11:28.215Z,1010.73
2018-03-27T15:12:28.642Z,1010.74
2018-03-27T15:13:28.802Z,1010.72
2018-03-27T15:14:29.113Z,1010.72
2018-03-27T15:15:29.130Z,1010.76
2018-03-27T15:16:29.161Z,1010.68
2018-03-27T15:17:29.185Z,1010.73
2018-03-27T15:18:29.638Z,1010.72
2018-03-27T15:19:29.835Z,1010.66
2018-03-27T15:20:29.881Z,1010.66
2018-03-27T15:21:29.928Z,1010.65
2018-03-27T15:22:29.902Z,1010.64
2018-03-27T15:23:29.936Z,1010.63
2018-03-27T15:24:29.958Z,1010.61
2018-03-27T15:25:29.984Z,1010.67
2018-03-27T15:26:30.012Z,1010.6
2018-03-27T15:27:30.037Z,1010.58
2018-03-27T15:28:30.062Z,1010.56
2018-03-27T15:29:30.098Z,1010.55
2018-03-27T15:30:30.124Z,1010.6
2018-03-27T15:31:30.150Z,1010.58
2018-03-27T15:32:30.313Z,1010.54
2018-03-27T15:33:30.338Z,1010.52
2018-03-27T15:34:30.380Z,1010.5
2018-03-27T15:35:30.392Z,1010.52
2018-03-27T15:36:30.417Z,1010.48
2018-03-27T15:37:30.549Z,1010.44
2018-03-27T15:38:30.727Z,1010.46
2018-03-27T15:39:30.755Z,1010.44
2018-03-27T15:40:30.777Z,1010.54
2018-03-27T15:41:31.023Z,1010.44
2018-03-27T15:42:30.835Z,1010.46
2018-03-27T15:43:31.217Z,1010.42
2018-03-27T15:44:31.224Z,1010.34
2018-03-27T15:45:31.616Z,1010.42
2018-03-27T15:46:31.668Z,1010.4
2018-03-27T15:47:31.758Z,1010.36
2018-03-27T15:48:31.703Z,1010.35
2018-03-27T15:49:32.038Z,1010.38
2018-03-27T15:50:32.062Z,1010.31
2018-03-27T15:51:32.514Z,1010.28
2018-03-27T15:52:32.823Z,1010.27
2018-03-27T15:53:32.856Z,1010.28
2018-03-27T15:54:32.889Z,1010.33
2018-03-27T15:55:32.927Z,1010.24
2018-03-27T15:56:32.937Z,1010.18
2018-03-27T15:57:32.983Z,1010.21
2018-03-27T15:58:33.414Z,1010.18
2018-03-27T15:59:33.738Z,1010.13
2018-03-27T16:00:33.751Z,1010.19
2018-03-27T16:01:34.198Z,1010.18
2018-03-27T16:02:34.227Z,1010.23
2018-03-27T16:03:34.251Z,1010.18
2018-03-27T16:04:34.513Z,1010.2
2018-03-27T16:05:34.525Z,1010.14
2018-03-27T16:06:34.827Z,1010.18
2018-03-27T16:07:35.209Z,1010.24
2018-03-27T16:08:35.234Z,1010.17
2018-03-27T16:09:35.659Z,1010.12
2018-03-27T16:10:35.677Z,1010.2
2018-03-27T16:11:35.868Z,1010.22
2018-03-27T16:12:35.888Z,1010.16
2018-03-27T16:13:35.916Z,1010.19
2018-03-27T16:14:35.926Z,1010.17
2018-03-27T16:15:35.983Z,1010.15
2018-03-27T16:16:35.995Z,1010.18
2018-03-27T16:17:36.023Z,1010.16
2018-03-27T16:18:36.221Z,1010.13
2018-03-27T16:19:36.635Z,1010.18
2018-03-27T16:20:37.099Z,1010.15
2018-03-27T16:21:37.092Z,1010.14
2018-03-27T16:22:37.116Z,1010.15
2018-03-27T16:23:37.141Z,1010.19
2018-03-27T16:24:37.165Z,1010.14
2018-03-27T16:25:37.668Z,1010.15
2018-03-27T16:26:37.604Z,1010.16
2018-03-27T16:27:37.859Z,1010.13
2018-03-27T16:28:38.122Z,1010.14
2018-03-27T16:29:38.093Z,1010.12
2018-03-27T16:30:38.124Z,1010.11
2018-03-27T16:31:38.539Z,1010.12
2018-03-27T16:32:38.929Z,1010.14
2018-03-27T16:33:39.169Z,1010.08
2018-03-27T16:34:39.294Z,1010.07
2018-03-27T16:35:39.700Z,1010.04
2018-03-27T16:36:39.743Z,1010.05
2018-03-27T16:37:39.861Z,1010.13
2018-03-27T16:38:40.239Z,1010.04
2018-03-27T16:39:40.708Z,1010.08
2018-03-27T16:40:40.683Z,1010.06
2018-03-27T16:41:40.762Z,1010.11
2018-03-27T16:42:41.172Z,1010.12
2018-03-27T16:43:41.219Z,1010.12
2018-03-27T16:44:41.235Z,1010.14
2018-03-27T16:45:41.259Z,1010.09
2018-03-27T16:46:41.714Z,1010.08
2018-03-27T16:47:42.114Z,1010.13
2018-03-27T16:48:42.294Z,1010.08
2018-03-27T16:49:42.329Z,1010.13
2018-03-27T16:50:42.478Z,1010.13
2018-03-27T16:51:43.409Z,1010.16
2018-03-27T16:52:43.196Z,1010.13
2018-03-27T16:53:43.225Z,1010.13
2018-03-27T16:54:43.592Z,1010.17
2018-03-27T16:55:43.614Z,1010.17
2018-03-27T16:56:43.656Z,1010.19
2018-03-27T16:57:43.683Z,1010.16
2018-03-27T16:58:43.733Z,1010.15
2018-03-27T16:59:44.138Z,1010.11
2018-03-27T17:00:44.168Z,1010.14
2018-03-27T17:01:44.751Z,1010.14
2018-03-27T17:02:44.923Z,1010.12
2018-03-27T17:03:45.021Z,1010.13
2018-03-27T17:04:45.017Z,1010.13
2018-03-27T17:05:45.345Z,1010.14
2018-03-27T17:06:45.067Z,1010.12
2018-03-27T17:07:45.105Z,1010.09
2018-03-27T17:08:45.127Z,1010.05
2018-03-27T17:09:45.547Z,1010.1
2018-03-27T17:10:45.559Z,1010.09
2018-03-27T17:11:45.743Z,1010.06
2018-03-27T17:12:45.718Z,1010.05
2018-03-27T17:13:46.303Z,1010.09
2018-03-27T17:14:46.284Z,1010.06
2018-03-27T17:15:45.978Z,1010.02
2018-03-27T17:16:46.039Z,1010.02
2018-03-27T17:17:46.263Z,1010
2018-03-27T17:18:46.434Z,1010.04
2018-03-27T17:19:46.738Z,1010.04
2018-03-27T17:20:46.673Z,1009.99
2018-03-27T17:21:46.757Z,1010.01
2018-03-27T17:22:46.873Z,1009.98
2018-03-27T17:23:46.872Z,1009.96
2018-03-27T17:24:46.912Z,1009.96
2018-03-27T17:25:47.313Z,1009.92
2018-03-27T17:26:47.335Z,1009.9
2018-03-27T17:27:47.707Z,1009.92
2018-03-27T17:28:47.953Z,1009.86
2018-03-27T17:29:47.782Z,1009.87
2018-03-27T17:30:47.821Z,1009.84
2018-03-27T17:31:47.796Z,1009.89
2018-03-27T17:32:47.823Z,1009.86
2018-03-27T17:33:47.957Z,1009.82
2018-03-27T17:34:48.018Z,1009.84
2018-03-27T17:35:48.421Z,1009.81
2018-03-27T17:36:48.507Z,1009.81
2018-03-27T17:37:48.442Z,1009.81
2018-03-27T17:38:48.889Z,1009.81
2018-03-27T17:39:48.878Z,1009.86
2018-03-27T17:40:48.913Z,1009.83
2018-03-27T17:41:48.939Z,1009.79
2018-03-27T17:42:49.460Z,1009.83
2018-03-27T17:43:49.461Z,1009.79
2018-03-27T17:44:49.494Z,1009.76
2018-03-27T17:45:49.510Z,1009.8
2018-03-27T17:46:49.982Z,1009.76
2018-03-27T17:47:49.978Z,1009.76
2018-03-27T17:48:50.103Z,1009.8
2018-03-27T17:49:50.112Z,1009.84
2018-03-27T17:50:50.283Z,1009.87
2018-03-27T17:51:50.676Z,1009.87
2018-03-27T17:52:51.287Z,1009.86
2018-03-27T17:53:51.182Z,1009.88
2018-03-27T17:54:51.201Z,1009.87
2018-03-27T17:55:51.628Z,1009.86
2018-03-27T17:56:51.855Z,1009.9
2018-03-27T17:57:52.015Z,1009.9
2018-03-27T17:58:52.114Z,1009.88
2018-03-27T17:59:52.418Z,1009.86
2018-03-27T18:00:52.588Z,1009.92
2018-03-27T18:01:52.698Z,1009.92
2018-03-27T18:02:52.504Z,1009.87
2018-03-27T18:03:55.192Z,1009.92
